Time;durP1;ratioP1;P1;durP2;ratioP2;P2;SDS_P1;SDS_P2;PMS_P1;PMS_P2;Temp;Humidity;BMP_temperature;BMP_pressure;BME280_temperature;BME280_humidity;BME280_pressure;Samples;Min_cycle;Max_cycle;Signal;HPM_P1;HPM_P2
2021/06/24 00:01:59;;;;;;;3.95;1.52;;;25.40;65.40;;;;;;5186050;28;20061;-72
2021/06/24 00:04:31;;;;;;;3.67;1.30;;;25.40;65.30;;;;;;5181921;28;20145;-72
2021/06/24 00:07:05;;;;;;;3.65;1.20;;;25.40;65.30;;;;;;5187086;28;20304;-72
2021/06/24 00:09:37;;;;;;;2.03;1.17;;;25.40;65.30;;;;;;5186643;28;20050;-72
2021/06/24 00:12:10;;;;;;;1.88;0.90;;;25.40;65.30;;;;;;5182682;28;20508;-72
2021/06/24 00:14:42;;;;;;;6.00;1.40;;;25.40;65.30;;;;;;5176450;28;20555;-72
2021/06/24 00:17:15;;;;;;;3.03;0.73;;;25.40;65.30;;;;;;5181544;28;20069;-72
2021/06/24 00:19:47;;;;;;;6.60;1.38;;;25.40;65.20;;;;;;5189422;28;20064;-72
2021/06/24 00:22:20;;;;;;;2.50;0.93;;;25.40;65.60;;;;;;5181125;28;20092;-72
2021/06/24 00:24:52;;;;;;;3.13;1.13;;;25.30;65.20;;;;;;5184834;28;20050;-72
2021/06/24 00:27:25;;;;;;;4.50;1.00;;;25.40;65.30;;;;;;5179894;28;20048;-72
2021/06/24 00:29:57;;;;;;;1.50;1.05;;;25.30;65.30;;;;;;5179481;28;20042;-72
2021/06/24 00:32:30;;;;;;;1.95;1.00;;;25.30;65.30;;;;;;5184536;28;20057;-71
2021/06/24 00:35:04;;;;;;;;;;;25.30;65.40;;;;;;5199909;28;20045;-72
2021/06/24 00:37:37;;;;;;;3.45;1.15;;;25.20;65.40;;;;;;5190444;28;19921;-72
2021/06/24 00:40:13;;;;;;;2.22;1.27;;;25.30;65.40;;;;;;5181178;28;20049;-72
2021/06/24 00:42:45;;;;;;;1.15;0.75;;;25.20;65.40;;;;;;5181271;28;20077;-72
2021/06/24 00:45:18;;;;;;;2.38;1.05;;;25.30;65.40;;;;;;5195316;28;20049;-72
2021/06/24 00:47:51;;;;;;;1.30;0.98;;;25.30;65.40;;;;;;5186981;28;20060;-72
2021/06/24 00:50:24;;;;;;;5.63;1.08;;;25.20;65.30;;;;;;5186541;28;20049;-71
2021/06/24 00:52:57;;;;;;;2.13;1.33;;;25.20;65.30;;;;;;5203225;28;21509;-72
2021/06/24 00:55:48;;;;;;;2.15;1.27;;;25.20;65.30;;;;;;5199814;28;20915;-72
2021/06/24 00:58:26;;;;;;;3.53;1.17;;;25.20;65.30;;;;;;5161498;28;20041;-72
2021/06/24 01:01:02;;;;;;;1.98;1.23;;;25.20;65.20;;;;;;5185457;28;20807;-72
2021/06/24 01:03:35;;;;;;;1.85;1.05;;;25.20;65.10;;;;;;5201282;28;20041;-71
2021/06/24 01:06:07;;;;;;;2.45;1.08;;;25.20;65.10;;;;;;5197615;28;20057;-73
2021/06/24 01:08:40;;;;;;;3.88;1.42;;;25.20;65.00;;;;;;5181162;28;20529;-72
2021/06/24 01:11:19;;;;;;;3.35;1.20;;;25.20;65.00;;;;;;5167736;28;20056;-72
2021/06/24 01:13:53;;;;;;;3.05;1.42;;;25.20;65.00;;;;;;5167697;28;20711;-72
2021/06/24 01:16:26;;;;;;;2.03;1.10;;;25.20;65.00;;;;;;5184405;28;20065;-72
2021/06/24 01:18:59;;;;;;;6.32;1.20;;;25.10;64.90;;;;;;5183910;28;20053;-73
2021/06/24 01:21:33;;;;;;;2.20;1.42;;;25.10;64.90;;;;;;5183344;28;20061;-72
2021/06/24 01:24:06;;;;;;;1.95;1.10;;;25.10;65.00;;;;;;5196591;28;20057;-72
2021/06/24 01:26:41;;;;;;;2.38;1.10;;;25.10;65.00;;;;;;5165881;28;20078;-73
2021/06/24 01:29:14;;;;;;;2.75;1.45;;;25.10;65.00;;;;;;5183663;28;20414;-72
2021/06/24 01:31:47;;;;;;;1.65;1.00;;;25.10;65.00;;;;;;5167933;28;20041;-73
2021/06/24 01:34:19;;;;;;;4.63;1.17;;;25.10;65.00;;;;;;5202446;28;20054;-72
2021/06/24 01:36:52;;;;;;;1.63;1.20;;;25.10;64.90;;;;;;5185785;28;20524;-72
2021/06/24 01:39:25;;;;;;;1.13;0.77;;;25.10;64.90;;;;;;5201791;28;20057;-72
2021/06/24 01:41:59;;;;;;;1.17;1.00;;;25.10;64.90;;;;;;5169925;28;20069;-73
2021/06/24 01:44:35;;;;;;;0.85;0.80;;;25.10;64.90;;;;;;5175800;28;20056;-72
2021/06/24 01:47:11;;;;;;;3.83;1.17;;;25.10;64.90;;;;;;5160846;28;20053;-73
2021/06/24 01:49:44;;;;;;;1.45;0.90;;;25.00;64.80;;;;;;5197105;28;20048;-73
2021/06/24 01:52:16;;;;;;;1.53;1.00;;;25.00;64.70;;;;;;5169186;28;21041;-73
2021/06/24 01:54:49;;;;;;;5.30;1.10;;;25.00;64.80;;;;;;5184385;28;20064;-73
2021/06/24 01:57:23;;;;;;;2.63;1.15;;;25.00;64.70;;;;;;5202644;28;20489;-72
2021/06/24 02:00:02;;;;;;;3.38;1.10;;;25.00;64.70;;;;;;5175243;28;20049;-72
2021/06/24 02:02:36;;;;;;;2.03;1.08;;;25.00;65.10;;;;;;5168761;28;20057;-72
2021/06/24 02:05:17;;;;;;;2.00;1.20;;;25.00;64.50;;;;;;5203947;28;20054;-72
2021/06/24 02:07:50;;;;;;;2.13;1.20;;;25.00;64.50;;;;;;5186118;28;20064;-72
2021/06/24 02:10:30;;;;;;;4.00;1.20;;;25.00;64.50;;;;;;5178762;28;20058;-72
2021/06/24 02:13:04;;;;;;;2.67;0.95;;;25.00;64.50;;;;;;5184816;28;20492;-74
2021/06/24 02:15:37;;;;;;;2.50;1.00;;;24.90;64.50;;;;;;5188887;28;20042;-73
2021/06/24 02:18:13;;;;;;;2.17;0.98;;;24.90;64.40;;;;;;5202107;28;20041;-72
2021/06/24 02:20:50;;;;;;;2.72;1.10;;;24.90;64.40;;;;;;5174326;28;20517;-72
2021/06/24 02:23:33;;;;;;;2.22;0.90;;;24.90;64.30;;;;;;5205405;28;20536;-72
2021/06/24 02:26:19;;;;;;;1.42;0.82;;;24.90;64.30;;;;;;5177429;28;20053;-73
2021/06/24 02:29:04;;;;;;;1.35;0.98;;;24.80;64.10;;;;;;5182792;28;20045;-72
2021/06/24 02:31:38;;;;;;;;;;;24.90;64.10;;;;;;5206933;28;20054;-73
2021/06/24 02:34:18;;;;;;;3.83;1.20;;;24.80;64.00;;;;;;5187273;28;19925;-73
2021/06/24 02:37:03;;;;;;;1.83;0.93;;;24.80;64.10;;;;;;5201370;28;20573;-73
2021/06/24 02:40:09;;;;;;;1.73;0.88;;;24.80;64.10;;;;;;5184007;28;20536;-72
2021/06/24 02:42:43;;;;;;;2.55;0.85;;;24.80;63.90;;;;;;5205015;28;20042;-73
2021/06/24 02:45:16;;;;;;;;;;;24.80;63.90;;;;;;5208147;28;20049;-74
2021/06/24 02:47:50;;;;;;;1.90;0.85;;;24.70;63.70;;;;;;5170675;28;19925;-73
2021/06/24 02:50:27;;;;;;;1.98;0.95;;;24.70;63.80;;;;;;5172618;28;20053;-74
2021/06/24 02:53:07;;;;;;;1.55;0.85;;;24.70;63.80;;;;;;5202862;28;20656;-73
2021/06/24 02:55:43;;;;;;;1.27;0.80;;;24.80;63.80;;;;;;5201166;28;20049;-72
2021/06/24 02:58:17;;;;;;;1.55;0.75;;;24.70;63.70;;;;;;5148202;28;20057;-72
2021/06/24 03:01:01;;;;;;;3.65;0.80;;;24.70;63.70;;;;;;5187103;28;20052;-72
2021/06/24 03:03:45;;;;;;;0.80;0.68;;;24.70;63.70;;;;;;5170549;28;20049;-73
2021/06/24 03:06:25;;;;;;;1.67;0.80;;;24.70;63.70;;;;;;5200529;28;20061;-72
2021/06/24 03:08:58;;;;;;;1.50;0.82;;;24.70;63.60;;;;;;5180406;28;20449;-72
2021/06/24 03:11:34;;;;;;;2.13;0.80;;;24.70;63.60;;;;;;5200896;28;20045;-73
2021/06/24 03:14:10;;;;;;;3.25;0.77;;;24.70;63.50;;;;;;5199928;28;20045;-72
2021/06/24 03:16:46;;;;;;;2.25;0.80;;;24.70;63.50;;;;;;5200815;28;20060;-73
2021/06/24 03:19:25;;;;;;;1.42;0.80;;;24.70;63.40;;;;;;5186012;28;20053;-73
2021/06/24 03:22:09;;;;;;;1.08;0.57;;;24.70;63.30;;;;;;5170083;28;20049;-73
2021/06/24 03:24:53;;;;;;;1.67;0.85;;;24.70;63.30;;;;;;5200437;28;20058;-73
2021/06/24 03:27:33;;;;;;;0.93;0.63;;;24.60;63.30;;;;;;5179596;28;20053;-72
2021/06/24 03:30:28;;;;;;;1.17;0.75;;;24.60;63.00;;;;;;5183526;28;20064;-72
2021/06/24 03:33:03;;;;;;;1.80;0.70;;;24.60;63.00;;;;;;5171779;28;20053;-73
2021/06/24 03:35:36;;;;;;;1.23;0.73;;;24.60;62.80;;;;;;5186348;28;20054;-72
2021/06/24 03:38:08;;;;;;;2.20;0.77;;;24.60;62.80;;;;;;5186250;28;20437;-73
2021/06/24 03:40:42;;;;;;;1.48;0.80;;;24.60;62.80;;;;;;5184619;28;20060;-73
2021/06/24 03:43:15;;;;;;;1.90;1.00;;;24.60;62.80;;;;;;5179699;28;20057;-72
2021/06/24 03:45:48;;;;;;;1.57;0.90;;;24.60;62.80;;;;;;5183188;28;20057;-72
2021/06/24 03:48:21;;;;;;;2.80;0.90;;;24.60;62.90;;;;;;5182448;28;20312;-72
2021/06/24 03:51:03;;;;;;;1.83;1.08;;;24.60;62.90;;;;;;5170295;28;20050;-72
2021/06/24 03:53:36;;;;;;;1.38;1.00;;;24.60;62.90;;;;;;5179251;28;20053;-72
2021/06/24 03:56:09;;;;;;;1.90;0.80;;;24.60;62.90;;;;;;5179964;28;20049;-72
2021/06/24 03:58:51;;;;;;;1.45;1.05;;;24.50;62.90;;;;;;5179062;28;20304;-72
2021/06/24 04:01:23;;;;;;;4.20;1.00;;;24.50;62.90;;;;;;5199042;28;20057;-72
2021/06/24 04:03:57;;;;;;;1.45;0.90;;;24.50;63.00;;;;;;5167839;28;20049;-72
2021/06/24 04:06:45;;;;;;;3.28;0.70;;;24.50;63.20;;;;;;5180905;28;20091;-73
2021/06/24 04:09:17;;;;;;;2.75;0.88;;;24.50;63.10;;;;;;5155396;28;20053;-73
2021/06/24 04:11:50;;;;;;;1.45;0.90;;;24.50;63.20;;;;;;5200488;28;20053;-72
2021/06/24 04:14:49;;;;;;;0.70;0.70;;;24.50;63.20;;;;;;5177822;28;20080;-72
2021/06/24 04:17:26;;;;;;;1.35;0.80;;;24.60;63.50;;;;;;5196511;28;20049;-73
2021/06/24 04:20:00;;;;;;;2.42;0.80;;;24.60;63.70;;;;;;5193866;28;20053;-72
2021/06/24 04:22:35;;;;;;;1.90;0.77;;;24.70;63.90;;;;;;5178682;28;20060;-71
2021/06/24 04:25:27;;;;;;;5.68;1.27;;;24.70;64.00;;;;;;5181346;28;20056;-72
2021/06/24 04:28:02;;;;;;;2.25;0.90;;;24.70;64.10;;;;;;5158968;28;20045;-71
2021/06/24 04:30:38;;;;;;;4.57;1.40;;;24.80;64.20;;;;;;5180128;28;20054;-72
2021/06/24 04:33:10;;;;;;;2.70;0.88;;;24.80;64.30;;;;;;5162544;28;20060;-70
2021/06/24 04:35:56;;;;;;;4.70;1.08;;;24.80;64.30;;;;;;5194431;28;20149;-70
2021/06/24 04:38:29;;;;;;;6.68;1.45;;;24.90;64.40;;;;;;5169616;28;20064;-72
2021/06/24 04:41:04;;;;;;;5.38;0.73;;;24.90;64.40;;;;;;5183578;28;20755;-72
2021/06/24 04:43:52;;;;;;;4.50;1.35;;;24.90;64.50;;;;;;5185905;28;20079;-73
2021/06/24 04:46:25;;;;;;;4.45;1.35;;;24.90;64.50;;;;;;5189995;28;20268;-71
2021/06/24 04:48:58;;;;;;;9.25;1.52;;;24.90;64.50;;;;;;5174732;28;20058;-72
2021/06/24 04:51:46;;;;;;;12.27;1.83;;;25.00;64.60;;;;;;5173385;28;20057;-72
2021/06/24 04:54:26;;;;;;;8.13;1.52;;;25.00;64.60;;;;;;5173836;28;20053;-72
2021/06/24 04:56:59;;;;;;;8.05;2.30;;;25.00;64.60;;;;;;5180745;28;20045;-73
2021/06/24 04:59:54;;;;;;;5.03;1.17;;;25.00;64.70;;;;;;5183419;28;20050;-73
2021/06/24 05:02:49;;;;;;;5.30;1.10;;;25.00;64.70;;;;;;5183547;28;20337;-71
2021/06/24 05:05:35;;;;;;;5.13;1.70;;;25.00;64.70;;;;;;5191180;28;20042;-72
2021/06/24 05:08:13;;;;;;;1.77;1.40;;;25.10;64.80;;;;;;5171077;28;20072;-73
2021/06/24 05:10:45;;;;;;;2.20;1.02;;;25.00;63.70;;;;;;5177034;28;20502;-73
2021/06/24 05:13:18;;;;;;;3.70;1.20;;;24.80;64.10;;;;;;5172159;28;20049;-71
2021/06/24 05:15:51;;;;;;;2.15;1.40;;;24.50;65.00;;;;;;5176430;28;20058;-72
2021/06/24 05:18:24;;;;;;;2.87;1.30;;;24.20;65.60;;;;;;5174178;28;20411;-72
2021/06/24 05:20:59;;;;;;;0.95;0.95;;;23.90;66.50;;;;;;5188545;28;20307;-72
2021/06/24 05:23:32;;;;;;;2.15;1.30;;;23.60;67.00;;;;;;5184652;28;20063;-69
2021/06/24 05:26:04;;;;;;;1.33;0.95;;;23.40;67.70;;;;;;5175992;28;20529;-71
2021/06/24 05:28:37;;;;;;;2.35;1.13;;;23.20;68.20;;;;;;5167856;28;20674;-71
2021/06/24 05:31:09;;;;;;;4.32;0.90;;;23.20;68.00;;;;;;5166922;28;20085;-75
2021/06/24 05:33:42;;;;;;;1.07;0.97;;;23.30;68.30;;;;;;5168007;28;20049;-73
2021/06/24 05:36:15;;;;;;;1.05;0.88;;;23.30;68.20;;;;;;5166295;28;20303;-72
2021/06/24 05:38:47;;;;;;;1.85;0.98;;;23.30;67.50;;;;;;5175203;28;20061;-71
2021/06/24 05:41:20;;;;;;;1.00;0.80;;;23.30;67.30;;;;;;5170458;28;20573;-70
2021/06/24 05:43:52;;;;;;;1.63;0.95;;;23.30;67.60;;;;;;5169740;28;20052;-71
2021/06/24 05:46:27;;;;;;;1.65;0.90;;;23.30;67.80;;;;;;5177600;28;20744;-72
2021/06/24 05:49:00;;;;;;;2.35;1.00;;;23.20;67.60;;;;;;5166853;28;20057;-71
2021/06/24 05:51:32;;;;;;;4.63;1.27;;;23.20;67.80;;;;;;5170315;28;20053;-72
2021/06/24 05:54:05;;;;;;;1.42;0.80;;;23.20;68.50;;;;;;5171552;28;20500;-73
2021/06/24 05:56:37;;;;;;;1.10;0.70;;;23.20;68.40;;;;;;5180094;28;20486;-72
2021/06/24 05:59:10;;;;;;;1.20;0.75;;;23.30;68.00;;;;;;5184769;28;20069;-71
2021/06/24 06:01:46;;;;;;;6.18;1.00;;;23.40;68.00;;;;;;5179765;28;20049;-72
2021/06/24 06:04:19;;;;;;;4.20;0.90;;;23.50;68.10;;;;;;5181744;28;20434;-72
2021/06/24 06:06:52;;;;;;;5.80;1.30;;;23.70;68.00;;;;;;5181464;28;20783;-72
2021/06/24 06:09:24;;;;;;;2.85;0.80;;;23.80;68.00;;;;;;5167573;28;20053;-72
2021/06/24 06:11:57;;;;;;;4.30;0.95;;;23.80;67.80;;;;;;5180572;28;20057;-72
2021/06/24 06:14:30;;;;;;;5.75;1.17;;;23.90;67.90;;;;;;5186030;28;20049;-72
2021/06/24 06:17:02;;;;;;;4.68;1.20;;;24.00;67.50;;;;;;5176854;28;20054;-71
2021/06/24 06:19:35;;;;;;;3.97;1.00;;;24.00;67.40;;;;;;5173586;28;20626;-71
2021/06/24 06:22:07;;;;;;;1.95;0.95;;;24.10;67.30;;;;;;5175463;28;20045;-72
2021/06/24 06:24:41;;;;;;;1.67;0.80;;;24.20;67.20;;;;;;5181186;28;20064;-68
2021/06/24 06:27:13;;;;;;;;;;;24.20;67.10;;;;;;5177079;28;20042;-71
2021/06/24 06:29:45;;;;;;;2.67;1.00;;;24.20;67.00;;;;;;5188422;28;20274;-70
2021/06/24 06:32:18;;;;;;;4.05;0.85;;;24.30;66.90;;;;;;5178131;28;20061;-69
2021/06/24 06:34:51;;;;;;;3.40;1.00;;;24.30;66.80;;;;;;5184492;28;20061;-70
2021/06/24 06:37:24;;;;;;;3.58;1.10;;;24.40;66.80;;;;;;5178258;28;20494;-68
2021/06/24 06:39:56;;;;;;;3.27;1.10;;;24.40;66.80;;;;;;5171590;28;20068;-72
2021/06/24 06:42:29;;;;;;;1.80;0.80;;;24.40;66.70;;;;;;5165782;28;20311;-74
2021/06/24 06:45:02;;;;;;;2.10;0.70;;;24.50;66.70;;;;;;5171121;28;20061;-72
2021/06/24 06:47:34;;;;;;;3.92;0.88;;;24.50;66.60;;;;;;5181858;28;20152;-69
2021/06/24 06:50:09;;;;;;;1.77;1.10;;;24.50;66.50;;;;;;5180671;28;20085;-68
2021/06/24 06:52:42;;;;;;;3.17;1.05;;;24.60;66.50;;;;;;5184539;28;20610;-72
2021/06/24 06:55:14;;;;;;;2.10;0.82;;;24.60;66.40;;;;;;5175203;28;20061;-69
2021/06/24 06:57:47;;;;;;;3.95;1.00;;;24.60;66.30;;;;;;5174682;28;20184;-71
2021/06/24 07:00:20;;;;;;;3.75;0.85;;;24.60;66.20;;;;;;5179098;28;20061;-71
2021/06/24 07:02:54;;;;;;;6.28;1.10;;;24.70;66.20;;;;;;5191375;28;20053;-71
2021/06/24 07:05:27;;;;;;;2.72;1.02;;;24.70;66.20;;;;;;5188268;28;20057;-70
2021/06/24 07:08:00;;;;;;;;;;;24.70;66.10;;;;;;5177784;28;20525;-70
2021/06/24 07:10:33;;;;;;;5.43;1.05;;;24.70;66.00;;;;;;5200577;28;19929;-69
2021/06/24 07:13:05;;;;;;;3.95;1.05;;;24.70;66.00;;;;;;5188789;28;20046;-71
2021/06/24 07:15:38;;;;;;;2.05;1.10;;;24.70;65.90;;;;;;5199582;28;20060;-69
2021/06/24 07:18:12;;;;;;;0.80;0.80;;;24.80;66.50;;;;;;5184867;28;20062;-73
2021/06/24 07:20:44;;;;;;;3.60;1.10;;;24.80;65.90;;;;;;5179390;28;20060;-72
2021/06/24 07:23:17;;;;;;;1.98;0.90;;;24.80;65.80;;;;;;5178886;28;20054;-70
2021/06/24 07:25:50;;;;;;;2.42;1.00;;;24.80;65.80;;;;;;5184221;28;20049;-71
2021/06/24 07:28:23;;;;;;;3.20;1.00;;;24.80;65.80;;;;;;5182697;28;20069;-72
2021/06/24 07:30:56;;;;;;;1.85;1.00;;;24.80;65.80;;;;;;5177133;28;20417;-70
2021/06/24 07:33:29;;;;;;;3.10;1.00;;;24.90;65.80;;;;;;5191397;28;20490;-72
2021/06/24 07:36:03;;;;;;;2.28;1.15;;;24.90;65.70;;;;;;5177299;28;20413;-71
2021/06/24 07:38:35;;;;;;;2.15;1.10;;;24.90;65.70;;;;;;5184600;28;20053;-71
2021/06/24 07:41:16;;;;;;;4.20;1.08;;;24.90;65.70;;;;;;5177519;28;20048;-71
2021/06/24 07:43:49;;;;;;;4.32;1.27;;;25.00;65.60;;;;;;5181390;28;20053;-73
2021/06/24 07:46:23;;;;;;;2.60;1.00;;;25.00;65.60;;;;;;5183885;28;20054;-71
2021/06/24 07:48:58;;;;;;;2.28;1.00;;;25.00;65.60;;;;;;5167902;28;20064;-71
2021/06/24 07:51:31;;;;;;;;;;;25.00;65.60;;;;;;5191299;28;20064;-70
2021/06/24 07:54:04;;;;;;;1.75;1.23;;;25.00;65.50;;;;;;5198052;28;19928;-73
2021/06/24 07:56:37;;;;;;;2.25;1.20;;;25.00;65.50;;;;;;5185094;28;20041;-69
2021/06/24 07:59:12;;;;;;;1.75;0.88;;;25.00;65.50;;;;;;5191840;28;20045;-72
2021/06/24 08:01:44;;;;;;;4.30;1.00;;;25.00;65.50;;;;;;5184860;28;20520;-72
2021/06/24 08:04:17;;;;;;;5.65;1.20;;;25.00;65.40;;;;;;5177667;28;20053;-71
2021/06/24 08:06:52;;;;;;;3.22;0.98;;;25.10;65.40;;;;;;5178191;28;20061;-73
2021/06/24 08:09:24;;;;;;;4.05;1.20;;;25.10;65.40;;;;;;5183329;28;20057;-71
2021/06/24 08:11:57;;;;;;;1.38;0.90;;;25.10;65.30;;;;;;5174682;28;20402;-73
2021/06/24 08:14:30;;;;;;;3.50;1.00;;;25.10;65.30;;;;;;5179732;28;20049;-73
2021/06/24 08:17:03;;;;;;;1.47;0.90;;;25.10;65.30;;;;;;5177691;28;20053;-73
2021/06/24 08:19:35;;;;;;;1.77;1.00;;;25.10;65.20;;;;;;5175857;28;20050;-71
2021/06/24 08:22:08;;;;;;;1.80;1.20;;;25.10;65.20;;;;;;5175851;28;20064;-71
2021/06/24 08:24:41;;;;;;;1.40;1.13;;;25.20;65.20;;;;;;5177354;28;20322;-72
2021/06/24 08:27:13;;;;;;;2.20;1.00;;;25.20;65.90;;;;;;5176174;28;20069;-72
2021/06/24 08:29:46;;;;;;;3.20;0.90;;;25.20;65.20;;;;;;5194099;28;20563;-73
2021/06/24 08:32:18;;;;;;;2.25;1.30;;;25.20;65.20;;;;;;5179675;28;20058;-72
2021/06/24 08:34:51;;;;;;;2.25;1.17;;;25.20;65.20;;;;;;5180887;28;20045;-72
2021/06/24 08:37:24;;;;;;;2.67;1.08;;;25.20;65.10;;;;;;5170498;28;20053;-72
2021/06/24 08:39:56;;;;;;;2.50;0.90;;;25.20;65.10;;;;;;5184288;28;20057;-73
2021/06/24 08:42:31;;;;;;;1.40;1.00;;;25.20;65.10;;;;;;5182974;28;20068;-72
2021/06/24 08:45:06;;;;;;;2.22;1.00;;;25.20;65.10;;;;;;5178913;28;20057;-72
2021/06/24 08:47:48;;;;;;;1.30;1.17;;;25.20;65.10;;;;;;5170658;28;20065;-73
2021/06/24 08:50:20;;;;;;;2.97;1.77;;;25.20;65.00;;;;;;5172410;28;20058;-72
2021/06/24 08:52:55;;;;;;;1.38;1.08;;;25.20;65.10;;;;;;5177882;28;20046;-73
2021/06/24 08:55:36;;;;;;;3.97;1.33;;;25.20;65.00;;;;;;5172481;28;20055;-71
2021/06/24 08:58:09;;;;;;;2.20;1.08;;;25.30;65.00;;;;;;5176668;28;20058;-73
2021/06/24 09:00:42;;;;;;;1.33;0.90;;;25.20;64.90;;;;;;5175914;28;20057;-72
2021/06/24 09:03:18;;;;;;;2.40;1.00;;;25.30;65.00;;;;;;5177100;28;20057;-72
2021/06/24 09:06:04;;;;;;;1.90;1.08;;;25.30;64.90;;;;;;5163838;28;20057;-72
2021/06/24 09:08:39;;;;;;;4.40;1.08;;;25.30;64.90;;;;;;5171655;28;20058;-72
2021/06/24 09:11:24;;;;;;;2.65;1.08;;;25.30;64.90;;;;;;5178129;28;20041;-71
2021/06/24 09:14:13;;;;;;;3.05;1.23;;;25.30;64.80;;;;;;5179821;28;20065;-71
2021/06/24 09:16:45;;;;;;;3.17;0.80;;;25.30;64.80;;;;;;5185636;28;20054;-71
2021/06/24 09:19:26;;;;;;;1.90;1.23;;;25.30;64.80;;;;;;5180856;28;20046;-72
2021/06/24 09:22:01;;;;;;;1.42;1.20;;;25.30;64.80;;;;;;5162201;28;21495;-72
2021/06/24 09:24:42;;;;;;;2.53;1.33;;;25.30;64.80;;;;;;5178056;28;20433;-73
2021/06/24 09:27:18;;;;;;;1.83;1.00;;;25.30;64.80;;;;;;5182619;28;20391;-71
2021/06/24 09:30:07;;;;;;;1.30;1.05;;;25.40;64.80;;;;;;5175792;28;20061;-72
2021/06/24 09:32:45;;;;;;;2.53;1.02;;;25.30;64.70;;;;;;5181335;28;20041;-72
2021/06/24 09:35:30;;;;;;;2.65;1.10;;;25.40;64.80;;;;;;5163713;28;20052;-72
2021/06/24 09:38:13;;;;;;;1.65;1.17;;;25.40;64.70;;;;;;5174360;28;24825;-70
2021/06/24 09:40:53;;;;;;;2.15;1.00;;;25.40;64.70;;;;;;5178221;28;20537;-71
2021/06/24 09:43:39;;;;;;;2.38;1.35;;;25.40;64.70;;;;;;5203789;28;20049;-72
2021/06/24 09:46:19;;;;;;;3.28;1.00;;;25.40;64.70;;;;;;5180894;28;20064;-71
2021/06/24 09:48:59;;;;;;;1.33;0.88;;;25.40;64.70;;;;;;5186971;28;20789;-71
2021/06/24 09:51:34;;;;;;;2.65;1.10;;;25.40;64.70;;;;;;5203104;28;20057;-72
2021/06/24 09:54:13;;;;;;;3.92;1.50;;;25.40;64.60;;;;;;5185328;28;20049;-72
2021/06/24 09:56:48;;;;;;;2.53;0.93;;;25.40;64.60;;;;;;5190168;28;20437;-71
2021/06/24 09:59:34;;;;;;;1.58;1.00;;;25.40;64.60;;;;;;5190002;28;20606;-72
2021/06/24 10:02:13;;;;;;;1.13;0.70;;;25.50;64.60;;;;;;5182234;28;20045;-71
2021/06/24 10:04:46;;;;;;;3.28;1.65;;;25.40;64.50;;;;;;5182475;28;24816;-71
2021/06/24 10:07:21;;;;;;;1.02;0.88;;;25.50;64.60;;;;;;5177375;28;20472;-71
2021/06/24 10:09:53;;;;;;;3.38;1.30;;;25.50;64.60;;;;;;5165642;28;20057;-73
2021/06/24 10:12:26;;;;;;;2.15;1.40;;;25.50;64.50;;;;;;5171241;28;20520;-74
2021/06/24 10:14:58;;;;;;;1.53;1.10;;;25.50;64.50;;;;;;5186217;28;20084;-72
2021/06/24 10:17:32;;;;;;;;;;;25.50;64.60;;;;;;5178319;28;20060;-72
2021/06/24 10:20:06;;;;;;;1.77;1.13;;;25.40;64.50;;;;;;5172822;28;19925;-70
2021/06/24 10:22:40;;;;;;;3.25;1.00;;;25.50;64.60;;;;;;5175651;28;20840;-73
2021/06/24 10:25:15;;;;;;;3.38;1.17;;;25.50;64.60;;;;;;5178161;28;20057;-72
2021/06/24 10:27:53;;;;;;;3.13;1.02;;;25.50;64.60;;;;;;5188490;28;20065;-73
2021/06/24 10:30:27;;;;;;;1.63;1.15;;;25.50;64.50;;;;;;5193813;28;20046;-75
2021/06/24 10:33:00;;;;;;;1.90;1.10;;;25.50;64.50;;;;;;5181148;28;20060;-73
2021/06/24 10:35:36;;;;;;;1.83;1.10;;;25.50;64.60;;;;;;5186052;28;20126;-71
2021/06/24 10:38:12;;;;;;;1.02;0.93;;;25.50;64.50;;;;;;5185060;28;20045;-71
2021/06/24 10:40:55;;;;;;;1.88;0.90;;;25.50;64.50;;;;;;5180955;28;20058;-72
2021/06/24 10:43:45;;;;;;;3.15;1.00;;;25.50;64.40;;;;;;5184579;28;20054;-72
2021/06/24 10:46:21;;;;;;;2.28;1.00;;;25.50;64.40;;;;;;5173762;28;20375;-71
2021/06/24 10:48:53;;;;;;;3.80;1.20;;;25.50;64.40;;;;;;5195498;28;20068;-71
2021/06/24 10:51:33;;;;;;;3.42;1.50;;;25.60;64.50;;;;;;5187235;28;20056;-73
2021/06/24 10:54:07;;;;;;;3.63;1.10;;;25.60;64.50;;;;;;5203174;28;20042;-72
2021/06/24 10:56:44;;;;;;;3.35;1.00;;;25.60;64.50;;;;;;5187115;28;20510;-72
2021/06/24 10:59:29;;;;;;;1.73;1.00;;;25.60;64.50;;;;;;5186478;28;20433;-72
2021/06/24 11:02:07;;;;;;;1.95;1.05;;;25.60;64.50;;;;;;5160397;28;20057;-72
2021/06/24 11:04:41;;;;;;;1.52;1.20;;;25.60;64.50;;;;;;5190398;28;20049;-73
2021/06/24 11:07:34;;;;;;;1.40;0.90;;;25.70;64.60;;;;;;5184703;28;20449;-72
2021/06/24 11:10:17;;;;;;;2.85;1.27;;;25.70;64.50;;;;;;5182986;28;20072;-71
2021/06/24 11:12:51;;;;;;;1.58;1.20;;;25.60;64.40;;;;;;5162705;28;20046;-74
2021/06/24 11:15:49;;;;;;;4.43;1.13;;;25.60;64.50;;;;;;5173252;28;20407;-73
2021/06/24 11:18:47;;;;;;;1.38;0.93;;;25.60;64.50;;;;;;5175657;28;20178;-70
2021/06/24 11:21:43;;;;;;;3.08;1.02;;;25.60;64.50;;;;;;5154231;28;20072;-71
2021/06/24 11:24:19;;;;;;;1.55;0.80;;;25.60;64.60;;;;;;5158835;28;20054;-72
2021/06/24 11:26:55;;;;;;;1.48;1.05;;;25.60;64.70;;;;;;5190565;28;20536;-72
2021/06/24 11:29:39;;;;;;;3.75;1.10;;;25.60;64.70;;;;;;5175854;28;21226;-73
2021/06/24 11:32:28;;;;;;;2.33;1.00;;;25.60;64.70;;;;;;5170819;28;20049;-73
2021/06/24 11:35:04;;;;;;;1.25;0.95;;;25.60;64.80;;;;;;5176315;28;20077;-71
2021/06/24 11:37:37;;;;;;;6.38;1.48;;;25.50;64.70;;;;;;5184419;28;20049;-75
2021/06/24 11:40:10;;;;;;;;;;;25.50;64.70;;;;;;5188222;28;20057;-74
2021/06/24 11:42:47;;;;;;;1.27;1.02;;;25.50;64.70;;;;;;5182755;28;19924;-73
2021/06/24 11:45:21;;;;;;;1.55;1.05;;;25.50;64.80;;;;;;5181317;28;20046;-72
2021/06/24 11:47:56;;;;;;;1.88;1.10;;;25.50;64.80;;;;;;5185704;28;20453;-72
2021/06/24 12:05:02;;;;;;;2.67;1.23;;;25.60;65.50;;;;;;5174500;28;20061;-73
2021/06/24 12:07:38;;;;;;;1.48;1.10;;;25.50;65.60;;;;;;5176159;28;20053;-72
2021/06/24 12:10:21;;;;;;;7.30;1.47;;;25.50;65.70;;;;;;5183138;28;20064;-74
2021/06/24 12:12:53;;;;;;;6.70;1.33;;;25.60;65.80;;;;;;5181596;28;21316;-73
2021/06/24 12:15:26;;;;;;;4.37;1.33;;;25.60;65.90;;;;;;5173765;28;20405;-74
2021/06/24 12:17:59;;;;;;;5.45;1.33;;;25.60;66.00;;;;;;5176607;28;20061;-72
2021/06/24 12:20:31;;;;;;;5.13;1.30;;;25.60;66.10;;;;;;5174435;28;20049;-71
2021/06/24 12:23:23;;;;;;;6.03;1.40;;;25.50;66.10;;;;;;5150838;28;20061;-73
2021/06/24 12:25:59;;;;;;;5.85;1.38;;;25.60;66.00;;;;;;5192443;28;20521;-74
2021/06/24 12:28:32;;;;;;;7.07;1.63;;;25.60;66.10;;;;;;5169494;28;20405;-73
2021/06/24 12:31:07;;;;;;;6.15;1.88;;;25.60;66.00;;;;;;5177054;28;20053;-71
2021/06/24 12:33:39;;;;;;;3.10;1.20;;;25.70;66.10;;;;;;5172462;28;20037;-73
2021/06/24 12:36:12;;;;;;;6.80;1.60;;;25.70;66.10;;;;;;5174411;28;20049;-74
2021/06/24 12:38:45;;;;;;;31.85;2.58;;;25.70;66.10;;;;;;5169909;28;20084;-72
2021/06/24 12:41:17;;;;;;;7.67;2.07;;;25.70;66.00;;;;;;5151941;28;20509;-74
2021/06/24 12:43:57;;;;;;;7.22;1.30;;;25.80;66.10;;;;;;5155256;28;20266;-72
2021/06/24 12:46:36;;;;;;;16.73;1.70;;;25.80;66.00;;;;;;5162652;28;20049;-73
2021/06/24 12:49:17;;;;;;;9.48;1.77;;;25.80;66.10;;;;;;5170388;28;20064;-76
2021/06/24 12:51:49;;;;;;;6.07;1.60;;;25.80;66.00;;;;;;5167525;28;20053;-73
2021/06/24 12:54:22;;;;;;;6.85;1.60;;;25.80;66.00;;;;;;5171172;28;20048;-73
2021/06/24 12:56:56;;;;;;;6.60;1.63;;;25.90;66.00;;;;;;5161274;28;20044;-74
2021/06/24 12:59:28;;;;;;;4.60;1.52;;;25.90;66.00;;;;;;5132125;28;20052;-74
2021/06/24 13:02:06;;;;;;;5.23;1.60;;;26.00;65.90;;;;;;5146064;28;20064;-72
2021/06/24 13:04:40;;;;;;;5.47;1.40;;;26.10;65.80;;;;;;5140536;28;20084;-72
2021/06/24 13:07:13;;;;;;;5.68;1.40;;;26.10;65.80;;;;;;5154807;28;20073;-73
2021/06/24 13:09:46;;;;;;;6.40;2.03;;;26.20;65.60;;;;;;5146136;28;20528;-75
2021/06/24 13:12:18;;;;;;;16.90;2.05;;;26.30;65.60;;;;;;5137622;28;20037;-75
2021/06/24 13:14:51;;;;;;;6.45;2.10;;;26.40;65.70;;;;;;5171525;28;20045;-76
2021/06/24 13:17:35;;;;;;;7.57;2.42;;;26.50;65.20;;;;;;5165913;28;22293;-74
2021/06/24 13:20:09;;;;;;;8.52;1.50;;;26.50;64.70;;;;;;5152603;28;20425;-74
2021/06/24 13:22:42;;;;;;;16.83;1.98;;;26.60;64.60;;;;;;5147415;28;20060;-75
2021/06/24 13:25:20;;;;;;;6.15;2.10;;;26.70;65.20;;;;;;5177523;28;20061;-76
2021/06/24 13:27:52;;;;;;;7.93;2.22;;;26.70;64.20;;;;;;5179704;28;20061;-76
2021/06/24 13:30:25;;;;;;;5.10;1.70;;;26.80;63.90;;;;;;5177276;28;20638;-76
2021/06/24 13:32:58;;;;;;;;;;;26.90;63.80;;;;;;5177080;28;20057;-75
2021/06/24 13:35:32;;;;;;;4.63;1.70;;;26.80;63.30;;;;;;5166830;28;19929;-76
2021/06/24 13:38:10;;;;;;;4.68;1.58;;;26.90;63.40;;;;;;5170754;28;20041;-76
2021/06/24 13:40:46;;;;;;;5.10;1.52;;;26.90;63.20;;;;;;5174858;28;20502;-78
2021/06/24 13:43:18;;;;;;;3.72;1.73;;;27.00;63.10;;;;;;5168293;28;20053;-77
2021/06/24 13:46:00;;;;;;;8.68;1.90;;;26.90;62.90;;;;;;5171928;28;20058;-76
2021/06/24 13:48:33;;;;;;;3.88;1.90;;;26.90;62.90;;;;;;5161168;28;20053;-76